createdAt,value
2018-11-23T18:02:33.028Z,1017.40
2018-11-23T18:03:32.986Z,1017.41
2018-11-23T18:04:32.945Z,1017.45
2018-11-23T18:05:32.909Z,1017.44
2018-11-23T18:06:32.835Z,1017.44
2018-11-23T18:07:32.783Z,1017.44
2018-11-23T18:08:38.695Z,1017.45
2018-11-23T18:09:33.661Z,1017.40
2018-11-23T18:10:32.575Z,1017.42
2018-11-23T23:02:06.261Z,1012.88
2018-11-23T23:03:06.211Z,1012.81
2018-11-23T23:04:06.169Z,1012.82
2018-11-23T23:05:06.123Z,1012.80
2018-11-23T23:06:06.195Z,1012.81
2018-11-23T23:08:44.975Z,1012.92
2018-11-23T23:09:51.922Z,1012.87
2018-11-23T23:10:45.738Z,1012.88
2018-11-23T23:11:44.208Z,1012.84
2018-11-23T23:12:45.939Z,1012.79
2018-11-23T23:13:57.032Z,1012.90
2018-11-23T23:14:44.251Z,1012.86
2018-11-23T23:15:43.781Z,1012.86
2018-11-23T23:16:49.570Z,1012.86
2018-11-23T23:18:30.830Z,1012.78
2018-11-23T23:18:44.088Z,1012.81
2018-11-23T23:19:44.987Z,1012.76
2018-11-23T23:20:48.309Z,1012.75
2018-11-23T23:21:44.561Z,1012.68
2018-11-23T23:22:44.095Z,1012.74
2018-11-23T23:23:43.727Z,1012.69
2018-11-23T23:24:43.787Z,1012.69
2018-11-23T23:25:43.670Z,1012.72
2018-11-23T23:26:44.476Z,1012.65
2018-11-23T23:27:51.137Z,1012.66
2018-11-23T23:28:43.654Z,1012.61
2018-11-23T23:29:43.583Z,1012.59
2018-11-23T23:30:43.585Z,1012.55
2018-11-23T23:31:53.665Z,1012.57
2018-11-23T23:33:30.681Z,1012.61
2018-11-23T23:33:43.668Z,1012.61
2018-11-23T23:34:43.549Z,1012.68
2018-11-23T23:35:43.531Z,1012.64
2018-11-23T23:36:43.595Z,1012.63
2018-11-23T23:37:43.570Z,1012.60
2018-11-23T23:38:44.830Z,1012.61
2018-11-23T23:39:43.562Z,1012.55
2018-11-23T23:40:43.485Z,1012.51
2018-11-23T23:41:43.571Z,1012.55
2018-11-23T23:42:43.481Z,1012.51
2018-11-23T23:43:43.594Z,1012.49
2018-11-23T23:44:43.511Z,1012.47
2018-11-23T23:45:43.446Z,1012.48
2018-11-23T23:46:51.718Z,1012.51
2018-11-23T23:47:43.400Z,1012.48
2018-11-23T23:48:43.391Z,1012.51
2018-11-23T23:49:52.149Z,1012.51
2018-11-23T23:50:43.370Z,1012.46
2018-11-23T23:51:43.416Z,1012.45
2018-11-23T23:52:44.190Z,1012.46
2018-11-23T23:53:43.346Z,1012.43
2018-11-23T23:54:43.393Z,1012.39
2018-11-23T23:55:44.183Z,1012.45
2018-11-23T23:56:44.250Z,1012.42
2018-11-23T23:57:43.324Z,1012.35
2018-11-23T23:58:43.292Z,1012.37
2018-11-23T23:59:51.658Z,1012.33
